createdAt,value
2023-04-29T00:01:21.612Z,0
2023-04-29T00:03:01.389Z,0
2023-04-29T00:04:41.160Z,0
2023-04-29T00:06:20.942Z,0
2023-04-29T00:08:00.706Z,0
2023-04-29T00:09:40.446Z,0
2023-04-29T00:11:20.280Z,0
2023-04-29T00:12:59.991Z,0
2023-04-29T00:14:39.762Z,0
2023-04-29T00:16:19.524Z,0
2023-04-29T00:17:59.305Z,0
2023-04-29T00:19:39.064Z,0
2023-04-29T00:21:18.835Z,0
2023-04-29T00:22:58.610Z,0
2023-04-29T00:24:38.373Z,0
2023-04-29T00:26:18.133Z,0
2023-04-29T00:27:57.917Z,0
2023-04-29T00:29:37.674Z,0
2023-04-29T00:31:17.463Z,0
2023-04-29T00:32:57.211Z,0
2023-04-29T00:34:36.974Z,0
2023-04-29T00:36:16.742Z,0
2023-04-29T00:37:56.546Z,0
2023-04-29T00:39:36.292Z,0
2023-04-29T00:41:16.044Z,0
2023-04-29T00:42:55.813Z,0
2023-04-29T00:44:35.583Z,0
2023-04-29T00:46:15.335Z,0
2023-04-29T00:47:55.110Z,0
2023-04-29T00:49:34.888Z,0
2023-04-29T00:51:14.672Z,0
2023-04-29T00:52:54.419Z,0
2023-04-29T00:54:34.184Z,0
2023-04-29T00:56:13.948Z,0
2023-04-29T00:57:53.708Z,0
2023-04-29T00:59:33.481Z,0
2023-04-29T01:01:13.241Z,0
2023-04-29T01:02:53.020Z,0
2023-04-29T01:04:32.797Z,0
2023-04-29T01:06:12.598Z,0
2023-04-29T01:07:52.333Z,0
2023-04-29T01:09:32.091Z,0
2023-04-29T01:11:11.875Z,0
2023-04-29T01:12:51.621Z,0
2023-04-29T01:14:31.404Z,0
2023-04-29T01:16:11.173Z,0
2023-04-29T01:17:50.920Z,0
2023-04-29T01:19:30.691Z,0
2023-04-29T01:21:10.465Z,0
2023-04-29T01:22:50.221Z,0
2023-04-29T01:24:29.994Z,0
2023-04-29T01:26:09.775Z,0
2023-04-29T01:27:49.526Z,0
2023-04-29T01:29:29.304Z,0
2023-04-29T01:31:09.064Z,0
2023-04-29T01:32:48.836Z,0
2023-04-29T01:34:28.600Z,0
2023-04-29T01:36:08.389Z,0
2023-04-29T01:37:48.125Z,0
2023-04-29T01:39:27.905Z,0
2023-04-29T01:41:07.663Z,0
2023-04-29T01:42:47.427Z,0
2023-04-29T01:44:27.214Z,0
2023-04-29T01:46:06.972Z,0
2023-04-29T01:47:46.739Z,0
2023-04-29T01:49:26.508Z,0
2023-04-29T01:51:06.275Z,0
2023-04-29T01:52:46.061Z,0
2023-04-29T01:54:25.808Z,0
2023-04-29T01:56:05.579Z,0
2023-04-29T01:57:45.350Z,0
2023-04-29T01:59:25.115Z,0
2023-04-29T02:01:04.868Z,0
2023-04-29T02:02:44.639Z,0
2023-04-29T02:04:24.408Z,0
2023-04-29T02:06:04.177Z,0
2023-04-29T02:07:43.968Z,0
2023-04-29T02:09:23.719Z,0
2023-04-29T02:11:03.485Z,0
2023-04-29T02:12:43.257Z,0
2023-04-29T02:14:23.027Z,0
2023-04-29T02:16:02.786Z,0
2023-04-29T02:17:42.558Z,0
2023-04-29T02:19:22.311Z,0
2023-04-29T02:21:02.086Z,0
2023-04-29T02:22:41.891Z,0
2023-04-29T02:24:21.631Z,0
2023-04-29T02:26:01.391Z,0
2023-04-29T02:27:41.161Z,0
2023-04-29T02:29:20.933Z,0
2023-04-29T02:31:00.696Z,0
2023-04-29T02:32:40.490Z,0
2023-04-29T02:34:20.236Z,0
2023-04-29T02:36:00.009Z,0
2023-04-29T02:37:39.766Z,0
2023-04-29T02:39:19.540Z,0
2023-04-29T02:40:59.309Z,0
2023-04-29T02:42:39.080Z,0
2023-04-29T02:44:18.833Z,0
2023-04-29T02:45:58.622Z,0
2023-04-29T02:47:38.380Z,0
2023-04-29T02:49:18.137Z,0
2023-04-29T02:50:57.939Z,0
2023-04-29T02:52:37.685Z,0
2023-04-29T02:54:17.448Z,0
2023-04-29T02:55:57.213Z,0
2023-04-29T02:57:36.981Z,0
2023-04-29T02:59:16.741Z,0
2023-04-29T03:00:56.511Z,0
2023-04-29T03:02:36.274Z,0
2023-04-29T03:04:16.048Z,0
2023-04-29T03:05:55.816Z,0
2023-04-29T03:07:35.580Z,0
2023-04-29T03:09:15.355Z,0
2023-04-29T03:10:55.127Z,0
2023-04-29T03:12:34.881Z,0
2023-04-29T03:14:14.659Z,0
2023-04-29T03:15:54.427Z,0
2023-04-29T03:17:34.188Z,0
2023-04-29T03:19:13.952Z,0
2023-04-29T03:20:53.737Z,0
2023-04-29T03:22:33.490Z,0
2023-04-29T03:24:13.259Z,0
2023-04-29T03:25:53.015Z,0
2023-04-29T03:27:32.783Z,0
2023-04-29T03:29:12.559Z,0
2023-04-29T03:30:52.325Z,0
2023-04-29T03:32:32.086Z,0
2023-04-29T03:34:11.851Z,0
2023-04-29T03:35:51.625Z,0
2023-04-29T03:37:31.393Z,0
2023-04-29T03:39:11.160Z,0
2023-04-29T03:40:50.933Z,0
2023-04-29T03:42:30.715Z,0
2023-04-29T03:44:10.460Z,0
2023-04-29T03:45:50.226Z,0
2023-04-29T03:47:29.994Z,0
2023-04-29T03:49:09.765Z,0
2023-04-29T03:50:49.512Z,0
2023-04-29T03:52:29.292Z,0
2023-04-29T03:54:09.066Z,0
2023-04-29T03:55:48.833Z,0
2023-04-29T03:57:28.600Z,0
2023-04-29T03:59:08.362Z,0
2023-04-29T04:00:48.132Z,0
2023-04-29T04:02:27.891Z,0
2023-04-29T04:04:07.693Z,0
2023-04-29T04:05:47.446Z,0
2023-04-29T04:07:27.232Z,0
2023-04-29T04:09:06.968Z,0
2023-04-29T04:10:46.784Z,0
2023-04-29T04:12:26.499Z,0
2023-04-29T04:14:06.271Z,0
2023-04-29T04:15:46.058Z,0.76
2023-04-29T04:17:25.802Z,0.76
2023-04-29T04:19:05.584Z,0
2023-04-29T04:20:45.346Z,0
2023-04-29T04:22:25.118Z,1.28
2023-04-29T04:24:04.863Z,0.51
2023-04-29T04:25:44.634Z,0.77
2023-04-29T04:27:24.418Z,0
2023-04-29T04:29:04.183Z,0
2023-04-29T04:30:43.963Z,0.51
2023-04-29T04:32:23.727Z,0.77
2023-04-29T04:34:03.487Z,2.81
2023-04-29T04:35:43.256Z,4.12
2023-04-29T04:37:23.025Z,5.16
2023-04-29T04:39:02.779Z,7.24
2023-04-29T04:40:42.559Z,8.03
2023-04-29T04:42:22.329Z,5.96
2023-04-29T04:44:02.100Z,5.19
2023-04-29T04:45:41.875Z,6.49
2023-04-29T04:47:21.639Z,8.58
2023-04-29T04:49:01.423Z,6.24
2023-04-29T04:50:41.194Z,3.63
2023-04-29T04:52:20.950Z,0.25
2023-04-29T04:54:00.741Z,0
2023-04-29T04:55:40.490Z,0
2023-04-29T04:57:20.255Z,0
2023-04-29T04:59:00.024Z,0.25
2023-04-29T05:00:39.784Z,0
2023-04-29T05:02:19.553Z,1.29
2023-04-29T05:03:59.321Z,1.03
2023-04-29T05:05:39.099Z,2.33
2023-04-29T05:07:18.867Z,1.29
2023-04-29T05:08:58.648Z,1.81
2023-04-29T05:10:38.415Z,2.59
2023-04-29T05:12:18.174Z,2.07
2023-04-29T05:13:57.953Z,1.29
2023-04-29T05:15:37.717Z,5.19
2023-04-29T05:17:17.489Z,5.46
2023-04-29T05:18:57.260Z,4.42
2023-04-29T05:20:37.031Z,3.64
2023-04-29T05:22:16.801Z,4.67
2023-04-29T05:23:56.572Z,5.73
2023-04-29T05:25:36.342Z,8.6
2023-04-29T05:27:16.100Z,6.79
2023-04-29T05:28:55.868Z,15.24
2023-04-29T05:30:35.641Z,8.12
2023-04-29T05:32:15.428Z,5.24
2023-04-29T05:33:55.181Z,5.24
2023-04-29T05:35:34.954Z,6.03
2023-04-29T05:37:14.742Z,3.4
2023-04-29T05:38:54.497Z,4.71
2023-04-29T05:40:34.275Z,3.4
2023-04-29T05:42:14.035Z,6.03
2023-04-29T05:43:53.805Z,4.19
2023-04-29T05:45:33.597Z,6.04
2023-04-29T05:47:13.350Z,4.98
2023-04-29T05:48:53.121Z,2.88
2023-04-29T05:50:32.882Z,3.67
2023-04-29T05:52:12.693Z,3.67
2023-04-29T05:53:52.427Z,5.78
2023-04-29T05:55:32.198Z,5.52
2023-04-29T05:57:11.960Z,6.04
2023-04-29T05:58:51.750Z,5.26
2023-04-29T06:00:31.523Z,6.58
2023-04-29T06:02:11.279Z,5.53
2023-04-29T06:03:51.035Z,5.53
2023-04-29T06:05:30.811Z,8.18
2023-04-29T06:07:10.585Z,6.86
2023-04-29T06:08:50.459Z,10.06
2023-04-29T06:10:30.118Z,10.08
2023-04-29T06:12:09.900Z,9.28
2023-04-29T06:13:49.675Z,8.5
2023-04-29T06:15:29.437Z,8.5
2023-04-29T06:17:09.207Z,10.58
2023-04-29T06:18:48.976Z,9.33
2023-04-29T06:20:28.747Z,12.02
2023-04-29T06:22:08.509Z,10.69
2023-04-29T06:23:48.284Z,11.51
2023-04-29T06:25:28.067Z,10.45
2023-04-29T06:27:07.829Z,9.38
2023-04-29T06:28:47.595Z,19.41
2023-04-29T06:30:27.381Z,19.79
2023-04-29T06:32:07.137Z,12.15
2023-04-29T06:33:46.913Z,12.43
2023-04-29T06:35:26.677Z,13.81
2023-04-29T06:37:06.462Z,13.28
2023-04-29T06:38:46.232Z,13.83
2023-04-29T06:40:26.001Z,14.14
2023-04-29T06:42:05.777Z,10.59
2023-04-29T06:43:45.551Z,9.78
2023-04-29T06:45:25.327Z,9.49
2023-04-29T06:47:05.078Z,9.78
2023-04-29T06:48:44.837Z,10.88
2023-04-29T06:50:24.621Z,12.25
2023-04-29T06:52:04.386Z,15.29
2023-04-29T06:53:44.149Z,17.54
2023-04-29T06:55:23.936Z,15.07
2023-04-29T06:57:03.684Z,14.81
2023-04-29T06:58:43.459Z,12.33
2023-04-29T07:00:23.302Z,10.67
2023-04-29T07:02:03.009Z,11.23
2023-04-29T07:03:42.793Z,12.88
2023-04-29T07:05:22.583Z,13.46
2023-04-29T07:07:02.317Z,11.79
2023-04-29T07:08:42.084Z,10.41
2023-04-29T07:10:21.856Z,10.98
2023-04-29T07:12:01.633Z,8.22
2023-04-29T07:13:41.422Z,9.05
2023-04-29T07:15:21.163Z,7.94
2023-04-29T07:17:00.934Z,10.41
2023-04-29T07:18:40.714Z,11.25
2023-04-29T07:20:20.468Z,12.91
2023-04-29T07:22:00.253Z,15.99
2023-04-29T07:23:40.029Z,14.06
2023-04-29T07:25:19.789Z,19.36
2023-04-29T07:26:59.588Z,23.36
2023-04-29T07:28:39.334Z,22.57
2023-04-29T07:30:19.113Z,12.76
2023-04-29T07:31:58.882Z,7.74
2023-04-29T07:33:38.652Z,6.06
2023-04-29T07:35:18.427Z,8.22
2023-04-29T07:36:58.204Z,8.81
2023-04-29T07:38:37.954Z,8.81
2023-04-29T07:40:17.730Z,8.8
2023-04-29T07:41:57.496Z,8.53
2023-04-29T07:43:37.256Z,8.8
2023-04-29T07:45:17.037Z,9.62
2023-04-29T07:46:56.801Z,9.89
2023-04-29T07:48:36.580Z,8.52
2023-04-29T07:50:16.356Z,8.52
2023-04-29T07:51:56.106Z,9.34
2023-04-29T07:53:35.888Z,10.72
2023-04-29T07:55:15.656Z,13.79
2023-04-29T07:56:55.440Z,13.52
2023-04-29T07:58:35.205Z,16.33
2023-04-29T08:00:14.961Z,21.15
2023-04-29T08:01:54.748Z,24.05
2023-04-29T08:03:34.505Z,16.43
2023-04-29T08:05:14.287Z,14.18
2023-04-29T08:06:54.059Z,14.18
2023-04-29T08:08:33.812Z,15.59
2023-04-29T08:10:13.587Z,17.28
2023-04-29T08:11:53.354Z,19
2023-04-29T08:13:33.159Z,17.6
2023-04-29T08:15:12.902Z,14.78
2023-04-29T08:16:52.674Z,15.63
2023-04-29T08:18:32.455Z,16.75
2023-04-29T08:20:12.221Z,17.32
2023-04-29T08:21:51.995Z,18.19
2023-04-29T08:23:31.755Z,19.64
2023-04-29T08:25:11.530Z,20.5
2023-04-29T08:26:51.296Z,24.26
2023-04-29T08:28:31.069Z,28.25
2023-04-29T08:30:10.852Z,27.19
2023-04-29T08:31:50.624Z,34.81
2023-04-29T08:33:30.374Z,32.77
2023-04-29T08:35:10.161Z,32.18
2023-04-29T08:36:49.920Z,31.31
2023-04-29T08:38:29.746Z,32.48
2023-04-29T08:40:09.463Z,31.29
2023-04-29T08:41:49.232Z,32.47
2023-04-29T08:43:28.984Z,31.61
2023-04-29T08:45:08.773Z,32.18
2023-04-29T08:46:48.533Z,32.47
2023-04-29T08:48:28.317Z,32.18
2023-04-29T08:50:08.112Z,32.18
2023-04-29T08:51:47.846Z,33.05
2023-04-29T08:53:27.668Z,31.16
2023-04-29T08:55:07.435Z,33.08
2023-04-29T08:56:47.168Z,33.06
2023-04-29T08:58:26.937Z,33.34
2023-04-29T09:00:06.709Z,32.78
2023-04-29T09:01:46.504Z,33.95
2023-04-29T09:03:26.232Z,33.93
2023-04-29T09:05:06.016Z,34.24
2023-04-29T09:06:45.781Z,33.02
2023-04-29T09:08:25.550Z,34.5
2023-04-29T09:10:05.314Z,34.22
2023-04-29T09:11:45.111Z,33.66
2023-04-29T09:13:24.859Z,34.53
2023-04-29T09:15:04.630Z,34.24
2023-04-29T09:16:44.430Z,33.93
2023-04-29T09:18:24.171Z,33.91
2023-04-29T09:20:03.941Z,33.34
2023-04-29T09:21:43.732Z,33.34
2023-04-29T09:23:23.580Z,33.61
2023-04-29T09:25:03.248Z,35.73
2023-04-29T09:26:43.042Z,34.52
2023-04-29T09:28:22.791Z,31.75
2023-04-29T09:30:02.619Z,36.02
2023-04-29T09:31:42.353Z,32.77
2023-04-29T09:33:22.096Z,33.63
2023-04-29T09:35:01.896Z,34.22
2023-04-29T09:36:41.702Z,34.23
2023-04-29T09:38:21.424Z,34.22
2023-04-29T09:40:01.209Z,33.64
2023-04-29T09:41:40.971Z,33.93
2023-04-29T09:43:20.737Z,34.21
2023-04-29T09:45:00.520Z,32.96
2023-04-29T09:46:40.290Z,33.63
2023-04-29T09:48:20.088Z,33.93
2023-04-29T09:49:59.860Z,33.34
2023-04-29T09:51:39.586Z,33.34
2023-04-29T09:53:19.353Z,34.23
2023-04-29T09:54:59.127Z,34.5
2023-04-29T09:56:38.894Z,34.22
2023-04-29T09:58:18.672Z,33.64
2023-04-29T09:59:58.428Z,33.34
2023-04-29T10:01:38.210Z,33.04
2023-04-29T10:03:17.985Z,33.64
2023-04-29T10:04:57.752Z,33.93
2023-04-29T10:06:37.588Z,33.63
2023-04-29T10:08:17.294Z,32.47
2023-04-29T10:09:57.106Z,33.93
2023-04-29T10:11:36.828Z,36.84
2023-04-29T10:13:16.599Z,33.34
2023-04-29T10:14:56.390Z,32.77
2023-04-29T10:16:36.153Z,33.06
2023-04-29T10:18:15.929Z,33.36
2023-04-29T10:19:55.672Z,33.63
2023-04-29T10:21:35.458Z,33.64
2023-04-29T10:23:15.273Z,33.93
2023-04-29T10:24:54.999Z,33.64
2023-04-29T10:26:34.763Z,33.63
2023-04-29T10:28:14.541Z,34.25
2023-04-29T10:29:54.327Z,33.34
2023-04-29T10:31:34.076Z,33.34
2023-04-29T10:33:13.835Z,33.93
2023-04-29T10:34:53.669Z,34.22
2023-04-29T10:36:33.420Z,33.32
2023-04-29T10:38:13.201Z,33.34
2023-04-29T10:39:52.933Z,33.64
2023-04-29T10:41:32.693Z,32.18
2023-04-29T10:43:12.460Z,32.77
2023-04-29T10:44:52.252Z,33.34
2023-04-29T10:46:32.023Z,33.63
2023-04-29T10:48:11.808Z,33.34
2023-04-29T10:49:51.541Z,33.04
2023-04-29T10:51:31.325Z,33.62
2023-04-29T10:53:11.103Z,32.16
2023-04-29T10:54:50.989Z,33.04
2023-04-29T10:56:30.627Z,33.62
2023-04-29T10:58:10.407Z,33.33
2023-04-29T10:59:50.184Z,32.15
2023-04-29T11:01:29.952Z,33.61
2023-04-29T11:03:09.714Z,32.22
2023-04-29T11:04:49.474Z,32.74
2023-04-29T11:06:29.287Z,32.45
2023-04-29T11:08:09.042Z,33.04
2023-04-29T11:09:48.801Z,32.43
2023-04-29T11:11:28.568Z,33.62
2023-04-29T11:13:08.338Z,32.45
2023-04-29T11:14:48.094Z,33.04
2023-04-29T11:16:27.882Z,32.16
2023-04-29T11:18:07.661Z,32.74
2023-04-29T11:19:47.535Z,33.04
2023-04-29T11:21:27.211Z,32.16
2023-04-29T11:23:06.963Z,33.33
2023-04-29T11:24:46.869Z,32.45
2023-04-29T11:26:26.504Z,32.16
2023-04-29T11:28:06.286Z,32.15
2023-04-29T11:29:46.041Z,35.66
2023-04-29T11:31:25.810Z,0
2023-04-29T11:33:05.576Z,0
2023-04-29T11:34:45.359Z,0
2023-04-29T11:36:25.118Z,0
2023-04-29T11:38:04.892Z,0
2023-04-29T11:39:44.685Z,0
2023-04-29T11:41:24.435Z,0
2023-04-29T11:43:04.226Z,0
2023-04-29T11:44:44.098Z,4.66
2023-04-29T11:46:23.755Z,4.39
2023-04-29T11:48:03.505Z,5.76
2023-04-29T11:49:43.305Z,5.21
2023-04-29T11:51:23.039Z,5.76
2023-04-29T11:53:02.832Z,7.13
2023-04-29T11:54:42.578Z,5.75
2023-04-29T11:56:22.353Z,6.03
2023-04-29T11:58:02.126Z,6.86
2023-04-29T11:59:41.900Z,6.31
2023-04-29T12:01:21.668Z,7.4
2023-04-29T12:03:01.430Z,7.68
2023-04-29T12:04:41.208Z,7.13
2023-04-29T12:06:20.978Z,7.4
2023-04-29T12:08:00.780Z,7.13
2023-04-29T12:09:40.568Z,7.95
2023-04-29T12:11:20.293Z,7.68
2023-04-29T12:13:00.085Z,7.13
2023-04-29T12:14:40.023Z,7.4
2023-04-29T12:16:19.595Z,7.13
2023-04-29T12:17:59.380Z,7.13
2023-04-29T12:19:39.154Z,7.4
2023-04-29T12:21:19.030Z,7.63
2023-04-29T12:22:58.709Z,7.95
2023-04-29T12:24:38.450Z,7.68
2023-04-29T12:26:18.247Z,7.4
2023-04-29T12:27:57.996Z,7.4
2023-04-29T12:29:37.782Z,7.4
2023-04-29T12:31:17.532Z,7.68
2023-04-29T12:32:57.354Z,7.68
2023-04-29T12:34:37.111Z,7.68
2023-04-29T12:36:16.857Z,7.68
2023-04-29T12:37:56.627Z,7.68
2023-04-29T12:39:36.394Z,7.95
2023-04-29T12:41:16.151Z,8.22
2023-04-29T12:42:55.923Z,7.68
2023-04-29T12:44:35.700Z,8.22
2023-04-29T12:46:15.467Z,7.4
2023-04-29T12:47:55.230Z,7.68
2023-04-29T12:49:35.013Z,7.13
2023-04-29T12:51:14.773Z,6.85
2023-04-29T12:52:54.556Z,6.58
2023-04-29T12:54:34.312Z,7.4
2023-04-29T12:56:14.172Z,7.4
2023-04-29T12:57:53.931Z,7.4
2023-04-29T12:59:33.637Z,7.68
2023-04-29T13:01:13.392Z,7.95
2023-04-29T13:02:53.181Z,7.95
2023-04-29T13:04:32.956Z,6.85
2023-04-29T13:06:12.733Z,7.68
2023-04-29T13:07:52.491Z,7.4
2023-04-29T13:09:32.249Z,7.4
2023-04-29T13:11:12.095Z,7.95
2023-04-29T13:12:51.789Z,6.27
2023-04-29T13:14:31.576Z,7.67
2023-04-29T13:16:11.342Z,7.4
2023-04-29T13:17:51.101Z,7.4
2023-04-29T13:19:30.866Z,7.4
2023-04-29T13:21:10.647Z,7.12
2023-04-29T13:22:50.401Z,7.68
2023-04-29T13:24:30.186Z,6.85
2023-04-29T13:26:09.955Z,7.12
2023-04-29T13:27:49.723Z,7.39
2023-04-29T13:29:29.569Z,7.67
2023-04-29T13:31:09.263Z,7.4
2023-04-29T13:32:49.041Z,7.39
2023-04-29T13:34:28.837Z,7.67
2023-04-29T13:36:08.605Z,7.67
2023-04-29T13:37:48.422Z,7.67
2023-04-29T13:39:28.217Z,4.92
2023-04-29T13:41:07.886Z,7.67
2023-04-29T13:42:47.646Z,7.95
2023-04-29T13:44:27.439Z,6.85
2023-04-29T13:46:07.191Z,7.4
2023-04-29T13:47:46.976Z,7.39
2023-04-29T13:49:26.732Z,7.67
2023-04-29T13:51:06.525Z,7.12
2023-04-29T13:52:46.285Z,7.67
2023-04-29T13:54:26.053Z,7.94
2023-04-29T13:56:05.812Z,7.39
2023-04-29T13:57:45.590Z,7.12
2023-04-29T13:59:25.393Z,7.12
2023-04-29T14:01:05.133Z,7.67
2023-04-29T14:02:44.905Z,7.12
2023-04-29T14:04:24.684Z,7.66
2023-04-29T14:06:04.441Z,7.4
2023-04-29T14:07:44.221Z,6.3
2023-04-29T14:09:24.052Z,6.85
2023-04-29T14:11:03.768Z,6.85
2023-04-29T14:12:43.533Z,6.85
2023-04-29T14:14:23.413Z,7.4
2023-04-29T14:16:03.068Z,6.85
2023-04-29T14:17:42.845Z,7.12
2023-04-29T14:19:22.624Z,6.85
2023-04-29T14:21:02.390Z,6.84
2023-04-29T14:22:42.242Z,7.12
2023-04-29T14:24:21.924Z,6.3
2023-04-29T14:26:01.694Z,7.39
2023-04-29T14:27:41.474Z,6.02
2023-04-29T14:29:21.235Z,7.39
2023-04-29T14:31:01.002Z,4.9
2023-04-29T14:32:40.781Z,7.39
2023-04-29T14:34:20.557Z,7.12
2023-04-29T14:36:00.314Z,7.12
2023-04-29T14:37:40.089Z,6.29
2023-04-29T14:39:20.009Z,7.66
2023-04-29T14:40:59.635Z,7.39
2023-04-29T14:42:39.392Z,7.39
2023-04-29T14:44:19.206Z,7.12
2023-04-29T14:45:58.949Z,6.84
2023-04-29T14:47:38.705Z,6.57
2023-04-29T14:49:18.506Z,6.84
2023-04-29T14:50:58.261Z,7.66
2023-04-29T14:52:38.039Z,6.29
2023-04-29T14:54:17.784Z,6.84
2023-04-29T14:55:57.573Z,6.29
2023-04-29T14:57:37.339Z,9.01
2023-04-29T14:59:17.110Z,6.84
2023-04-29T15:00:56.928Z,6.84
2023-04-29T15:02:36.667Z,7.11
2023-04-29T15:04:16.415Z,6.57
2023-04-29T15:05:56.313Z,6.84
2023-04-29T15:07:35.952Z,6.57
2023-04-29T15:09:15.785Z,7.11
2023-04-29T15:10:55.500Z,6.02
2023-04-29T15:12:35.332Z,7.11
2023-04-29T15:14:15.274Z,6.84
2023-04-29T15:15:54.810Z,5.74
2023-04-29T15:17:34.746Z,6.56
2023-04-29T15:19:14.429Z,6.02
2023-04-29T15:20:54.238Z,7.11
2023-04-29T15:22:34.110Z,5.74
2023-04-29T15:24:13.656Z,6.84
2023-04-29T15:25:53.628Z,7.38
2023-04-29T15:27:33.360Z,6.57
2023-04-29T15:29:13.139Z,6.56
2023-04-29T15:30:52.746Z,6.01
2023-04-29T15:32:32.651Z,6.57
2023-04-29T15:34:12.400Z,6.02
2023-04-29T15:35:52.175Z,6.01
2023-04-29T15:37:31.951Z,6.29
2023-04-29T15:39:11.590Z,7.11
2023-04-29T15:40:51.590Z,7.11
2023-04-29T15:42:31.186Z,6.56
2023-04-29T15:44:10.900Z,6.29
2023-04-29T15:45:50.853Z,6.56
2023-04-29T15:47:30.548Z,6.56
2023-04-29T15:49:10.384Z,5.44
2023-04-29T15:50:50.138Z,7.11
2023-04-29T15:52:29.934Z,6.84
2023-04-29T15:54:09.594Z,6.01
2023-04-29T15:55:49.454Z,5.47
2023-04-29T15:57:29.092Z,6.29
2023-04-29T15:59:08.997Z,7.11
2023-04-29T16:00:48.813Z,6.84
2023-04-29T16:02:28.636Z,6.29
2023-04-29T16:04:08.297Z,6.83
2023-04-29T16:05:48.125Z,6.56
2023-04-29T16:07:27.857Z,5.46
2023-04-29T16:09:07.493Z,3.27
2023-04-29T16:10:47.245Z,2.44
2023-04-29T16:12:27.012Z,2.71
2023-04-29T16:14:06.782Z,2.17
2023-04-29T16:15:46.541Z,2.98
2023-04-29T16:17:26.309Z,4.61
2023-04-29T16:19:06.075Z,6.8
2023-04-29T16:20:45.894Z,8.99
2023-04-29T16:22:25.617Z,11.22
2023-04-29T16:24:05.418Z,14.31
2023-04-29T16:25:45.170Z,7.41
2023-04-29T16:27:24.918Z,4.65
2023-04-29T16:29:04.701Z,5.47
2023-04-29T16:30:44.475Z,6.29
2023-04-29T16:32:24.258Z,6.84
2023-04-29T16:34:04.022Z,6.02
2023-04-29T16:35:43.916Z,6.01
2023-04-29T16:37:23.549Z,5.74
2023-04-29T16:39:03.337Z,6.56
2023-04-29T16:40:43.101Z,6.28
2023-04-29T16:42:22.926Z,7.38
2023-04-29T16:44:02.663Z,6.56
2023-04-29T16:45:42.438Z,6.56
2023-04-29T16:47:22.286Z,7.11
2023-04-29T16:49:01.960Z,5.47
2023-04-29T16:50:41.724Z,6.29
2023-04-29T16:52:21.494Z,6.01
2023-04-29T16:54:01.278Z,6.83
2023-04-29T16:55:41.055Z,6.56
2023-04-29T16:57:20.938Z,6.29
2023-04-29T16:59:00.636Z,6.56
2023-04-29T17:00:40.457Z,6.01
2023-04-29T17:02:20.246Z,6.01
2023-04-29T17:03:59.955Z,6.29
2023-04-29T17:05:39.665Z,5.74
2023-04-29T17:07:19.660Z,6.52
2023-04-29T17:08:59.232Z,6.84
2023-04-29T17:10:39.118Z,6.56
2023-04-29T17:12:18.797Z,5.74
2023-04-29T17:13:58.530Z,6.01
2023-04-29T17:15:38.304Z,5.74
2023-04-29T17:17:18.118Z,6.83
2023-04-29T17:18:57.833Z,6.29
2023-04-29T17:20:37.630Z,6.84
2023-04-29T17:22:17.355Z,6.01
2023-04-29T17:23:57.123Z,6.29
2023-04-29T17:25:36.900Z,7.11
2023-04-29T17:27:16.697Z,5.74
2023-04-29T17:28:56.441Z,5.74
2023-04-29T17:30:36.288Z,6.56
2023-04-29T17:32:15.992Z,6.83
2023-04-29T17:33:55.793Z,5.74
2023-04-29T17:35:35.785Z,6.01
2023-04-29T17:37:15.285Z,6.02
2023-04-29T17:38:55.198Z,6.29
2023-04-29T17:40:34.825Z,6.56
2023-04-29T17:42:14.605Z,6.01
2023-04-29T17:43:54.378Z,6.83
2023-04-29T17:45:34.161Z,5.74
2023-04-29T17:47:13.960Z,6.83
2023-04-29T17:48:53.728Z,6.29
2023-04-29T17:50:33.513Z,6.29
2023-04-29T17:52:13.224Z,6.29
2023-04-29T17:53:52.993Z,5.47
2023-04-29T17:55:32.769Z,6.01
2023-04-29T17:57:12.601Z,6.56
2023-04-29T17:58:52.294Z,6.28
2023-04-29T18:00:32.237Z,5.74
2023-04-29T18:02:11.931Z,5.47
2023-04-29T18:03:51.653Z,4.36
2023-04-29T18:05:31.391Z,2.72
2023-04-29T18:07:11.303Z,2.44
2023-04-29T18:08:50.930Z,2.71
2023-04-29T18:10:30.707Z,2.71
2023-04-29T18:12:10.565Z,2.71
2023-04-29T18:13:50.361Z,3.52
2023-04-29T18:15:29.996Z,1.89
2023-04-29T18:17:09.763Z,0.27
2023-04-29T18:18:49.606Z,1.08
2023-04-29T18:20:29.438Z,0
2023-04-29T18:22:09.159Z,0
2023-04-29T18:23:48.829Z,0
2023-04-29T18:25:28.665Z,0
2023-04-29T18:27:08.437Z,0
2023-04-29T18:28:48.156Z,0
2023-04-29T18:30:27.904Z,0
2023-04-29T18:32:07.697Z,0
2023-04-29T18:33:47.473Z,0
2023-04-29T18:35:27.219Z,0
2023-04-29T18:37:06.980Z,0
2023-04-29T18:38:46.761Z,0
2023-04-29T18:40:26.663Z,0
2023-04-29T18:42:06.322Z,0
2023-04-29T18:43:46.095Z,0
2023-04-29T18:45:25.828Z,0
2023-04-29T18:47:05.590Z,0
2023-04-29T18:48:45.356Z,0
2023-04-29T18:50:25.136Z,0
2023-04-29T18:52:04.945Z,0
2023-04-29T18:53:44.672Z,0
2023-04-29T18:55:24.486Z,0
2023-04-29T18:57:04.210Z,0
2023-04-29T18:58:43.976Z,0
2023-04-29T19:00:23.754Z,0
2023-04-29T19:02:03.582Z,0
2023-04-29T19:03:43.267Z,0
2023-04-29T19:05:23.093Z,0
2023-04-29T19:07:02.838Z,0
2023-04-29T19:08:42.593Z,0
2023-04-29T19:10:22.465Z,0
2023-04-29T19:12:02.128Z,0
2023-04-29T19:13:41.952Z,0
2023-04-29T19:15:21.634Z,0
2023-04-29T19:17:01.411Z,0
2023-04-29T19:18:41.217Z,0
2023-04-29T19:20:20.931Z,0
2023-04-29T19:22:00.703Z,0
2023-04-29T19:23:40.460Z,0
2023-04-29T19:25:20.261Z,0
2023-04-29T19:26:59.997Z,0
2023-04-29T19:28:39.765Z,0
2023-04-29T19:30:19.616Z,0
2023-04-29T19:31:59.301Z,0
2023-04-29T19:33:39.113Z,0
2023-04-29T19:35:18.842Z,0
2023-04-29T19:36:58.612Z,0
2023-04-29T19:38:38.402Z,0
2023-04-29T19:40:18.255Z,0
2023-04-29T19:41:57.946Z,0
2023-04-29T19:45:17.456Z,0
2023-04-29T19:46:57.214Z,0
2023-04-29T19:48:36.982Z,0
2023-04-29T19:50:16.844Z,0
2023-04-29T19:51:56.616Z,0
2023-04-29T19:53:36.297Z,0
2023-04-29T19:55:16.053Z,0
2023-04-29T19:56:55.817Z,0
2023-04-29T19:58:35.658Z,0
2023-04-29T20:00:15.478Z,0
2023-04-29T20:01:55.130Z,0
2023-04-29T20:03:34.884Z,0
2023-04-29T20:05:14.662Z,0
2023-04-29T20:06:54.422Z,0
2023-04-29T20:08:34.253Z,0
2023-04-29T20:10:14.000Z,0
2023-04-29T20:11:53.732Z,0
2023-04-29T20:13:33.505Z,0
2023-04-29T20:15:13.295Z,0
2023-04-29T20:16:53.033Z,0
2023-04-29T20:18:32.908Z,0
2023-04-29T20:20:12.734Z,0
2023-04-29T20:21:52.417Z,0
2023-04-29T20:23:32.249Z,0
2023-04-29T20:25:11.861Z,0
2023-04-29T20:26:51.704Z,0
2023-04-29T20:28:31.535Z,0
2023-04-29T20:30:11.262Z,0
2023-04-29T20:31:51.065Z,0
2023-04-29T20:33:30.793Z,0
2023-04-29T20:35:10.569Z,0
2023-04-29T20:36:50.423Z,0
2023-04-29T20:38:30.192Z,0
2023-04-29T20:40:09.767Z,0
2023-04-29T20:41:49.643Z,0
2023-04-29T20:43:29.375Z,0
2023-04-29T20:45:09.300Z,0
2023-04-29T20:46:48.944Z,0
2023-04-29T20:48:28.728Z,0
2023-04-29T20:50:08.500Z,0
2023-04-29T20:51:48.288Z,0
2023-04-29T20:53:28.019Z,0
2023-04-29T20:55:07.693Z,0
2023-04-29T20:56:47.620Z,0
2023-04-29T20:58:27.346Z,0
2023-04-29T21:00:06.983Z,0
2023-04-29T21:01:46.839Z,0
2023-04-29T21:03:26.590Z,0
2023-04-29T21:05:06.286Z,0
2023-04-29T21:06:46.254Z,0
2023-04-29T21:08:26.032Z,0
2023-04-29T21:10:05.676Z,0
2023-04-29T21:11:45.471Z,0
2023-04-29T21:13:25.273Z,0
2023-04-29T21:15:04.960Z,0
2023-04-29T21:16:44.780Z,0
2023-04-29T21:18:24.423Z,0
2023-04-29T21:20:04.189Z,0
2023-04-29T21:21:44.031Z,0
2023-04-29T21:23:23.850Z,0
2023-04-29T21:25:03.549Z,0
2023-04-29T21:26:43.308Z,0
2023-04-29T21:28:23.029Z,0
2023-04-29T21:30:02.858Z,0
2023-04-29T21:31:42.610Z,0
2023-04-29T21:33:22.467Z,0
2023-04-29T21:35:02.134Z,0
2023-04-29T21:36:41.935Z,0
2023-04-29T21:38:21.628Z,0
2023-04-29T21:40:01.582Z,0
2023-04-29T21:41:41.190Z,0
2023-04-29T21:43:20.967Z,0
2023-04-29T21:45:00.796Z,0
2023-04-29T21:46:40.508Z,0
2023-04-29T21:48:20.298Z,0
2023-04-29T21:50:00.098Z,0
2023-04-29T21:51:39.928Z,0
2023-04-29T21:53:19.615Z,0
2023-04-29T21:54:59.372Z,0
2023-04-29T21:56:39.100Z,0
2023-04-29T21:58:18.961Z,0
2023-04-29T21:59:58.768Z,0
2023-04-29T22:01:38.435Z,0
2023-04-29T22:03:18.149Z,0
2023-04-29T22:04:57.905Z,0
2023-04-29T22:06:37.668Z,0
2023-04-29T22:08:17.497Z,0
2023-04-29T22:09:57.305Z,0
2023-04-29T22:11:37.155Z,0
2023-04-29T22:13:16.794Z,0
2023-04-29T22:14:56.531Z,0
2023-04-29T22:16:36.309Z,0
2023-04-29T22:18:16.048Z,0
2023-04-29T22:19:56.045Z,0
2023-04-29T22:21:35.601Z,0
2023-04-29T22:23:15.507Z,0
2023-04-29T22:24:55.143Z,0
2023-04-29T22:26:35.024Z,0
2023-04-29T22:28:14.661Z,0
2023-04-29T22:29:54.423Z,0
2023-04-29T22:31:34.274Z,0
2023-04-29T22:33:13.960Z,0
2023-04-29T22:34:53.721Z,0
2023-04-29T22:36:33.554Z,0
2023-04-29T22:38:13.467Z,0
2023-04-29T22:39:53.234Z,0
2023-04-29T22:41:32.791Z,0
2023-04-29T22:43:12.568Z,0
2023-04-29T22:44:52.339Z,0
2023-04-29T22:46:32.095Z,0
2023-04-29T22:48:11.869Z,0
2023-04-29T22:49:51.629Z,0
2023-04-29T22:51:31.397Z,0
2023-04-29T22:53:11.221Z,0
2023-04-29T22:54:51.045Z,0
2023-04-29T22:56:30.707Z,0
2023-04-29T22:58:10.466Z,0